Time;durP1;ratioP1;P1;durP2;ratioP2;P2;SDS_P1;SDS_P2;PMS_P1;PMS_P2;Temp;Humidity;BMP_temperature;BMP_pressure;BME280_temperature;BME280_humidity;BME280_pressure;Samples;Min_cycle;Max_cycle;Signal;HPM_P1;HPM_P2
2021/12/11 00:02:13;;;;;;;4.57;1.63;;;;;;;;;;4973408;28;20023;-58
2021/12/11 00:04:42;;;;;;;3.93;1.73;;;;;;;;;;4973363;28;20027;-58
2021/12/11 00:07:11;;;;;;;3.40;1.33;;;;;;;;;;4971604;28;20027;-58
2021/12/11 00:09:52;;;;;;;3.00;1.50;;;;;;;;;;4968123;28;20037;-58
2021/12/11 00:12:23;;;;;;;7.33;1.87;;;;;;;;;;4948857;29;20031;-58
2021/12/11 00:14:52;;;;;;;2.77;1.53;;;;;;;;;;4948943;29;20031;-58
2021/12/11 00:17:22;;;;;;;2.43;1.60;;;;;;;;;;4949924;29;20032;-58
2021/12/11 00:19:49;;;;;;;6.13;1.53;;;;;;;;;;4953779;29;20023;-57
2021/12/11 00:22:18;;;;;;;2.27;1.27;;;;;;;;;;4973351;28;20026;-57
2021/12/11 00:24:45;;;;;;;4.37;1.90;;;;;;;;;;4973287;28;20026;-58
2021/12/11 00:27:17;;;;;;;4.27;1.50;;;;;;;;;;4973481;28;20051;-57
2021/12/11 00:29:44;;;;;;;2.67;1.33;;;;;;;;;;4971503;28;20097;-57
2021/12/11 00:32:14;;;;;;;10.00;2.30;;;;;;;;;;4967488;28;20046;-58
2021/12/11 00:34:46;;;;;;;11.00;2.70;;;;;;;;;;4967394;28;20039;-58
2021/12/11 00:37:15;;;;;;;8.97;1.57;;;;;;;;;;4968013;28;20057;-58
2021/12/11 00:39:47;;;;;;;9.30;2.30;;;;;;;;;;4969385;28;20102;-58
2021/12/11 00:42:14;;;;;;;3.60;2.10;;;;;;;;;;4972926;28;20037;-57
2021/12/11 00:44:43;;;;;;;5.63;2.47;;;;;;;;;;4975108;28;20042;-57
2021/12/11 00:47:23;;;;;;;6.60;2.57;;;;;;;;;;4976631;28;20148;-57
2021/12/11 00:49:49;;;;;;;5.83;2.03;;;;;;;;;;4976899;28;20454;-58
2021/12/11 00:52:17;;;;;;;14.43;2.40;;;;;;;;;;4974067;28;20031;-58
2021/12/11 00:54:44;;;;;;;10.80;2.07;;;;;;;;;;4971715;28;20066;-58
2021/12/11 00:57:12;;;;;;;13.17;2.50;;;;;;;;;;4971513;28;20040;-57
2021/12/11 00:59:39;;;;;;;12.87;2.50;;;;;;;;;;4971522;28;20085;-58
2021/12/11 01:02:07;;;;;;;10.13;3.20;;;;;;;;;;4972236;28;20026;-57
2021/12/11 01:04:41;;;;;;;8.87;2.50;;;;;;;;;;4976797;28;20022;-57
2021/12/11 01:07:19;;;;;;;11.95;2.60;;;;;;;;;;4976622;28;20019;-57
2021/12/11 01:09:57;;;;;;;6.03;2.17;;;;;;;;;;4976438;28;20030;-57
2021/12/11 01:12:38;;;;;;;8.80;2.80;;;;;;;;;;4975612;28;20026;-57
2021/12/11 01:15:10;;;;;;;11.30;2.80;;;;;;;;;;4973322;28;20054;-57
2021/12/11 01:17:57;;;;;;;10.07;2.43;;;;;;;;;;4971151;28;20029;-58
2021/12/11 01:20:34;;;;;;;11.87;2.50;;;;;;;;;;4970193;28;20101;-57
2021/12/11 01:23:01;;;;;;;10.73;2.53;;;;;;;;;;4970890;28;20030;-57
2021/12/11 01:25:28;;;;;;;12.13;4.20;;;;;;;;;;4974652;28;20034;-57
2021/12/11 01:27:59;;;;;;;18.10;3.97;;;;;;;;;;4976266;28;20030;-57
2021/12/11 01:30:28;;;;;;;13.07;4.13;;;;;;;;;;4975861;28;20160;-57
2021/12/11 01:32:55;;;;;;;16.47;3.67;;;;;;;;;;4975832;28;20386;-57
2021/12/11 01:35:22;;;;;;;13.73;4.20;;;;;;;;;;4976141;28;20034;-57
2021/12/11 01:37:51;;;;;;;14.33;4.30;;;;;;;;;;4971899;28;20098;-57
2021/12/11 01:40:19;;;;;;;11.17;3.70;;;;;;;;;;4970435;28;20402;-57
2021/12/11 01:42:46;;;;;;;11.73;3.23;;;;;;;;;;4970374;28;20027;-57
2021/12/11 01:45:14;;;;;;;12.87;3.77;;;;;;;;;;4970447;28;20402;-57
2021/12/11 01:47:42;;;;;;;10.60;4.00;;;;;;;;;;4973264;28;20023;-57
2021/12/11 01:50:29;;;;;;;8.23;3.87;;;;;;;;;;4976111;28;20027;-57
2021/12/11 01:52:59;;;;;;;8.23;3.60;;;;;;;;;;4975633;28;20035;-58
2021/12/11 01:55:29;;;;;;;11.33;3.27;;;;;;;;;;4975033;28;20388;-57
2021/12/11 01:57:57;;;;;;;6.83;2.77;;;;;;;;;;4975364;28;20015;-57
2021/12/11 02:00:28;;;;;;;14.60;8.63;;;;;;;;;;4970301;28;20050;-58
2021/12/11 02:02:56;;;;;;;10.47;3.97;;;;;;;;;;4970301;28;20065;-57
2021/12/11 02:05:25;;;;;;;10.27;4.40;;;;;;;;;;4969567;28;20035;-57
2021/12/11 02:07:54;;;;;;;11.47;4.87;;;;;;;;;;4969897;28;20382;-57
2021/12/11 02:10:25;;;;;;;8.03;4.03;;;;;;;;;;4974222;28;20541;-57
2021/12/11 02:12:53;;;;;;;9.17;3.57;;;;;;;;;;4974901;28;20035;-57
2021/12/11 02:15:26;;;;;;;5.87;2.87;;;;;;;;;;4974978;28;20041;-57
2021/12/11 02:18:10;;;;;;;7.70;2.80;;;;;;;;;;4975029;28;20046;-57
2021/12/11 02:20:40;;;;;;;5.60;2.97;;;;;;;;;;4975282;28;20031;-57
2021/12/11 02:23:08;;;;;;;8.87;2.77;;;;;;;;;;4969544;28;20033;-57
2021/12/11 02:25:38;;;;;;;6.27;2.30;;;;;;;;;;4969600;28;20493;-58
2021/12/11 02:28:07;;;;;;;8.90;2.17;;;;;;;;;;4969884;28;20488;-57
2021/12/11 02:30:37;;;;;;;5.80;2.80;;;;;;;;;;4969670;28;20077;-57
2021/12/11 02:33:13;;;;;;;9.47;2.40;;;;;;;;;;4974518;28;20039;-58
2021/12/11 02:35:56;;;;;;;5.17;2.50;;;;;;;;;;4975065;28;20031;-57
2021/12/11 02:38:27;;;;;;;5.80;2.10;;;;;;;;;;4976328;28;20019;-57
2021/12/11 02:41:04;;;;;;;7.73;2.17;;;;;;;;;;4975067;28;20026;-57
2021/12/11 02:43:34;;;;;;;7.23;2.40;;;;;;;;;;4973402;28;20544;-57
2021/12/11 02:46:05;;;;;;;4.93;2.20;;;;;;;;;;4969041;28;20038;-57
2021/12/11 02:48:52;;;;;;;7.37;2.70;;;;;;;;;;4969604;28;20037;-57
2021/12/11 02:51:42;;;;;;;10.63;3.37;;;;;;;;;;4968764;28;20034;-57
2021/12/11 02:54:11;;;;;;;9.37;2.60;;;;;;;;;;4961606;28;20513;-57
2021/12/11 02:56:48;;;;;;;18.70;3.30;;;;;;;;;;4974551;28;20430;-57
2021/12/11 02:59:18;;;;;;;11.23;2.50;;;;;;;;;;4974653;28;20059;-57
2021/12/11 03:01:48;;;;;;;4.93;2.30;;;;;;;;;;4974423;28;20018;-58
2021/12/11 03:04:26;;;;;;;8.80;1.93;;;;;;;;;;4973628;28;20110;-57
2021/12/11 03:06:54;;;;;;;5.63;1.93;;;;;;;;;;4971157;28;20054;-57
2021/12/11 03:09:22;;;;;;;6.73;2.00;;;;;;;;;;4968966;28;20329;-57
2021/12/11 03:11:50;;;;;;;12.90;2.13;;;;;;;;;;4968738;28;20359;-57
2021/12/11 03:14:18;;;;;;;7.50;1.90;;;;;;;;;;4968892;28;20042;-57
2021/12/11 03:16:45;;;;;;;12.30;2.73;;;;;;;;;;4971560;28;20414;-57
2021/12/11 03:19:15;;;;;;;10.07;2.30;;;;;;;;;;4974188;28;20027;-56
2021/12/11 03:21:42;;;;;;;11.07;3.43;;;;;;;;;;4973991;28;20027;-57
2021/12/11 03:24:10;;;;;;;20.97;2.50;;;;;;;;;;4974253;28;20027;-58
2021/12/11 03:26:38;;;;;;;6.80;2.43;;;;;;;;;;4973978;28;20043;-57
2021/12/11 03:29:06;;;;;;;6.07;2.67;;;;;;;;;;4971455;28;20023;-57
2021/12/11 03:31:36;;;;;;;15.33;2.50;;;;;;;;;;4968020;28;20562;-57
2021/12/11 03:34:06;;;;;;;9.03;2.80;;;;;;;;;;4968580;28;20374;-57
2021/12/11 03:36:33;;;;;;;7.77;2.50;;;;;;;;;;4968749;28;20022;-57
2021/12/11 03:39:04;;;;;;;7.20;3.10;;;;;;;;;;4970851;28;20027;-57
2021/12/11 03:41:31;;;;;;;6.00;2.30;;;;;;;;;;4973879;28;20019;-58
2021/12/11 03:43:58;;;;;;;9.73;2.80;;;;;;;;;;4973559;28;20038;-56
2021/12/11 03:46:25;;;;;;;6.47;2.77;;;;;;;;;;4973265;28;20058;-57
2021/12/11 03:48:53;;;;;;;9.43;3.00;;;;;;;;;;4973853;28;20038;-57
2021/12/11 03:51:22;;;;;;;5.47;3.00;;;;;;;;;;4970944;28;20077;-57
2021/12/11 03:53:49;;;;;;;5.67;2.23;;;;;;;;;;4967960;28;20043;-57
2021/12/11 03:56:17;;;;;;;6.87;2.40;;;;;;;;;;4968314;28;20045;-58
2021/12/11 03:58:49;;;;;;;12.17;2.83;;;;;;;;;;4968400;28;20054;-57
2021/12/11 04:01:25;;;;;;;7.33;2.73;;;;;;;;;;4969991;28;20030;-58
2021/12/11 04:03:54;;;;;;;6.53;2.60;;;;;;;;;;4973321;28;20023;-56
2021/12/11 04:06:21;;;;;;;14.57;2.57;;;;;;;;;;4973496;28;20481;-57
2021/12/11 04:08:48;;;;;;;9.53;2.60;;;;;;;;;;4973535;28;20027;-57
2021/12/11 04:11:17;;;;;;;9.37;2.93;;;;;;;;;;4973457;28;20035;-57
2021/12/11 04:13:44;;;;;;;7.07;2.10;;;;;;;;;;4970275;28;20027;-57
2021/12/11 04:16:12;;;;;;;5.27;2.17;;;;;;;;;;4967945;28;20482;-57
2021/12/11 04:18:38;;;;;;;5.23;2.20;;;;;;;;;;4969380;28;20030;-56
2021/12/11 04:21:05;;;;;;;6.70;2.23;;;;;;;;;;4974522;28;20027;-57
2021/12/11 04:23:32;;;;;;;7.27;2.30;;;;;;;;;;4976300;28;20029;-57
2021/12/11 04:26:00;;;;;;;4.03;2.30;;;;;;;;;;4979860;28;20094;-57
2021/12/11 04:28:29;;;;;;;9.27;2.20;;;;;;;;;;4979497;28;20019;-57
2021/12/11 04:31:03;;;;;;;4.07;1.90;;;;;;;;;;4979238;28;20030;-57
2021/12/11 04:33:30;;;;;;;5.50;1.90;;;;;;;;;;4979508;28;20042;-57
2021/12/11 04:35:57;;;;;;;6.93;1.97;;;;;;;;;;4977158;28;20452;-57
2021/12/11 04:38:24;;;;;;;17.47;2.80;;;;;;;;;;4974058;28;20019;-57
2021/12/11 04:40:55;;;;;;;14.90;2.93;;;;;;;;;;4974312;28;20466;-57
2021/12/11 04:43:24;;;;;;;11.30;2.13;;;;;;;;;;4974373;28;20102;-57
2021/12/11 04:45:51;;;;;;;12.90;2.43;;;;;;;;;;4975893;28;20034;-57
2021/12/11 04:48:28;;;;;;;6.63;3.37;;;;;;;;;;4979266;28;20496;-57
2021/12/11 04:51:13;;;;;;;8.20;2.40;;;;;;;;;;4979570;28;20041;-57
2021/12/11 04:57:34;;;;;;;10.97;2.77;;;;;;;;;;4979512;28;20557;-57
2021/12/11 04:59:34;;;;;;;5.53;1.93;;;;;;;;;;4966590;28;20039;-58
2021/12/11 05:02:54;;;;;;;6.20;2.17;;;;;;;;;;4974105;28;20533;-57
2021/12/11 05:10:20;;;;;;;7.47;2.73;;;;;;;;;;4979561;28;20035;-57
2021/12/11 05:12:49;;;;;;;9.63;2.77;;;;;;;;;;4979498;28;20069;-57
2021/12/11 05:15:18;;;;;;;12.80;2.47;;;;;;;;;;4979349;28;20027;-57
2021/12/11 05:17:45;;;;;;;8.00;2.40;;;;;;;;;;4978567;28;20023;-57
2021/12/11 05:20:14;;;;;;;6.40;2.23;;;;;;;;;;4977797;28;20585;-57
2021/12/11 05:22:41;;;;;;;6.47;2.20;;;;;;;;;;4973899;28;20034;-57
2021/12/11 05:25:09;;;;;;;7.00;2.40;;;;;;;;;;4973810;28;20111;-57
2021/12/11 05:27:36;;;;;;;6.00;2.37;;;;;;;;;;4973536;28;20374;-57
2021/12/11 05:30:05;;;;;;;5.67;1.90;;;;;;;;;;4973342;28;20106;-57
2021/12/11 05:32:32;;;;;;;6.27;2.60;;;;;;;;;;4975375;28;20505;-57
2021/12/11 05:34:59;;;;;;;9.90;2.80;;;;;;;;;;4976023;28;20030;-57
2021/12/11 05:37:26;;;;;;;5.93;2.70;;;;;;;;;;4975849;28;20097;-58
2021/12/11 05:39:53;;;;;;;4.27;2.90;;;;;;;;;;4975869;28;20030;-57
2021/12/11 05:42:20;;;;;;;5.87;2.87;;;;;;;;;;4974318;28;20046;-57
2021/12/11 05:44:46;;;;;;;5.20;2.80;;;;;;;;;;4970755;28;20435;-57
2021/12/11 05:47:13;;;;;;;5.60;3.30;;;;;;;;;;4970551;28;20077;-57
2021/12/11 05:49:41;;;;;;;9.97;3.67;;;;;;;;;;4970357;28;20031;-56
2021/12/11 05:52:11;;;;;;;12.83;4.63;;;;;;;;;;4970467;28;20118;-57
2021/12/11 05:54:38;;;;;;;15.30;5.57;;;;;;;;;;4975719;28;20074;-56
2021/12/11 05:57:07;;;;;;;17.97;5.13;;;;;;;;;;4975581;28;20030;-57
2021/12/11 05:59:35;;;;;;;14.47;4.80;;;;;;;;;;4975626;28;20026;-56
2021/12/11 06:02:21;;;;;;;5.90;2.90;;;;;;;;;;4975116;28;20367;-58
2021/12/11 06:04:50;;;;;;;9.67;3.87;;;;;;;;;;4973895;28;20023;-57
2021/12/11 06:07:18;;;;;;;12.90;4.50;;;;;;;;;;4970295;28;20127;-58
2021/12/11 06:09:47;;;;;;;16.17;5.63;;;;;;;;;;4970310;28;20054;-57
2021/12/11 06:12:15;;;;;;;14.80;4.77;;;;;;;;;;4970310;28;20074;-57
2021/12/11 06:14:43;;;;;;;12.93;4.93;;;;;;;;;;4970787;28;20039;-56
2021/12/11 06:17:10;;;;;;;16.97;4.67;;;;;;;;;;4975359;28;20027;-57
2021/12/11 06:19:37;;;;;;;14.43;4.80;;;;;;;;;;4975396;28;20039;-57
2021/12/11 06:22:04;;;;;;;15.37;4.03;;;;;;;;;;4974957;28;20054;-57
2021/12/11 06:24:31;;;;;;;15.07;5.63;;;;;;;;;;4975073;28;20031;-57
2021/12/11 06:26:58;;;;;;;11.07;4.97;;;;;;;;;;4974093;28;20037;-57
2021/12/11 06:29:26;;;;;;;12.50;4.40;;;;;;;;;;4970012;28;20109;-57
2021/12/11 06:31:53;;;;;;;14.40;4.77;;;;;;;;;;4969733;28;20109;-57
2021/12/11 06:34:19;;;;;;;8.63;3.70;;;;;;;;;;4969168;28;20041;-57
2021/12/11 06:36:47;;;;;;;10.13;4.10;;;;;;;;;;4970294;28;20030;-57
2021/12/11 06:39:17;;;;;;;9.90;4.30;;;;;;;;;;4975147;28;20046;-57
2021/12/11 06:41:45;;;;;;;10.73;4.37;;;;;;;;;;4974668;28;20135;-57
2021/12/11 06:44:11;;;;;;;7.60;3.37;;;;;;;;;;4974564;28;20050;-57
2021/12/11 06:46:41;;;;;;;11.83;4.00;;;;;;;;;;4974464;28;20093;-57
2021/12/11 06:49:09;;;;;;;9.97;3.40;;;;;;;;;;4974106;28;20035;-57
2021/12/11 06:51:36;;;;;;;7.43;3.93;;;;;;;;;;4969522;28;20058;-56
2021/12/11 06:54:06;;;;;;;9.40;4.47;;;;;;;;;;4968980;28;20085;-56
2021/12/11 06:56:34;;;;;;;12.50;4.50;;;;;;;;;;4969389;28;20034;-57
2021/12/11 06:59:01;;;;;;;12.17;4.17;;;;;;;;;;4969568;28;20478;-57
2021/12/11 07:01:28;;;;;;;6.17;3.47;;;;;;;;;;4974173;28;20481;-57
2021/12/11 07:03:56;;;;;;;13.10;3.30;;;;;;;;;;4974667;28;20019;-57
2021/12/11 07:06:24;;;;;;;10.07;3.07;;;;;;;;;;4974719;28;20062;-57
2021/12/11 07:08:52;;;;;;;11.10;4.13;;;;;;;;;;4974344;28;20034;-57
2021/12/11 07:11:21;;;;;;;9.17;3.50;;;;;;;;;;4973768;28;20041;-57
2021/12/11 07:13:48;;;;;;;8.37;3.27;;;;;;;;;;4968725;28;20134;-57
2021/12/11 07:16:14;;;;;;;8.47;4.03;;;;;;;;;;4969078;28;20102;-56
2021/12/11 07:18:41;;;;;;;11.67;3.67;;;;;;;;;;4969017;28;20482;-57
2021/12/11 07:21:08;;;;;;;12.00;3.83;;;;;;;;;;4969019;28;20839;-57
2021/12/11 07:23:36;;;;;;;9.47;3.50;;;;;;;;;;4973956;28;20030;-56
2021/12/11 07:26:15;;;;;;;7.23;2.80;;;;;;;;;;4973993;28;20033;-57
2021/12/11 07:28:46;;;;;;;12.47;3.40;;;;;;;;;;4974067;28;20438;-57
2021/12/11 07:31:13;;;;;;;6.37;3.50;;;;;;;;;;4973848;28;20085;-57
2021/12/11 07:33:40;;;;;;;8.50;4.13;;;;;;;;;;4973061;28;20922;-57
2021/12/11 07:36:07;;;;;;;7.50;3.50;;;;;;;;;;4968796;28;20027;-56
2021/12/11 07:38:34;;;;;;;5.83;3.20;;;;;;;;;;4968896;28;20023;-57
2021/12/11 07:41:02;;;;;;;7.20;3.50;;;;;;;;;;4968728;28;20046;-57
2021/12/11 07:43:29;;;;;;;7.80;3.87;;;;;;;;;;4968207;28;20026;-56
2021/12/11 07:45:57;;;;;;;5.80;3.43;;;;;;;;;;4973586;28;20073;-57
2021/12/11 07:48:24;;;;;;;7.93;3.30;;;;;;;;;;4973836;28;20034;-57
2021/12/11 07:50:50;;;;;;;7.60;3.70;;;;;;;;;;4973910;28;20023;-57
2021/12/11 07:53:18;;;;;;;7.33;3.60;;;;;;;;;;4972867;28;20425;-57
2021/12/11 07:55:45;;;;;;;5.47;3.60;;;;;;;;;;4973322;28;20077;-57
2021/12/11 07:58:12;;;;;;;5.80;3.60;;;;;;;;;;4967508;28;20434;-56
2021/12/11 08:00:40;;;;;;;6.40;3.33;;;;;;;;;;4967929;28;20030;-57
2021/12/11 08:03:08;;;;;;;5.43;3.40;;;;;;;;;;4968046;28;20367;-57
2021/12/11 08:05:38;;;;;;;9.40;3.67;;;;;;;;;;4968306;28;20053;-57
2021/12/11 08:08:06;;;;;;;6.37;2.90;;;;;;;;;;4973469;28;20288;-56
2021/12/11 08:10:34;;;;;;;9.90;3.60;;;;;;;;;;4973517;28;20277;-56
2021/12/11 08:13:02;;;;;;;4.53;2.63;;;;;;;;;;4973247;28;20323;-57
2021/12/11 08:15:29;;;;;;;4.83;2.30;;;;;;;;;;4973112;28;20300;-56
2021/12/11 08:17:55;;;;;;;6.87;3.10;;;;;;;;;;4973557;28;20698;-56
2021/12/11 08:20:24;;;;;;;7.17;3.47;;;;;;;;;;4968192;28;20655;-57
2021/12/11 08:22:52;;;;;;;5.47;2.83;;;;;;;;;;4967940;28;20272;-57
2021/12/11 08:25:19;;;;;;;7.03;3.30;;;;;;;;;;4968178;28;20037;-56
2021/12/11 08:27:47;;;;;;;5.27;2.47;;;;;;;;;;4968131;28;20747;-56
2021/12/11 08:30:13;;;;;;;8.90;3.20;;;;;;;;;;4972545;28;20269;-56
2021/12/11 08:32:40;;;;;;;8.50;2.80;;;;;;;;;;4972854;28;20675;-56
2021/12/11 08:35:09;;;;;;;6.43;3.57;;;;;;;;;;4973297;28;20281;-56
2021/12/11 08:37:37;;;;;;;7.40;3.60;;;;;;;;;;4973390;28;20347;-56
2021/12/11 08:40:06;;;;;;;5.77;3.40;;;;;;;;;;4973199;28;20292;-57
2021/12/11 08:42:33;;;;;;;6.13;2.90;;;;;;;;;;4967841;28;20806;-56
2021/12/11 08:45:10;;;;;;;6.17;3.23;;;;;;;;;;4968006;28;20327;-56
2021/12/11 08:47:39;;;;;;;5.33;2.90;;;;;;;;;;4967994;28;21117;-56
2021/12/11 08:50:07;;;;;;;7.53;3.53;;;;;;;;;;4967827;28;20348;-57
2021/12/11 08:52:36;;;;;;;8.00;3.00;;;;;;;;;;4972715;28;20264;-56
2021/12/11 08:55:05;;;;;;;6.73;3.10;;;;;;;;;;4973081;28;20360;-56
2021/12/11 08:57:32;;;;;;;4.80;2.80;;;;;;;;;;4973403;28;20253;-56
2021/12/11 09:00:06;;;;;;;8.37;3.60;;;;;;;;;;4972915;28;20272;-57
2021/12/11 09:02:39;;;;;;;6.00;2.60;;;;;;;;;;4972807;28;20269;-56
2021/12/11 09:05:23;;;;;;;5.60;3.33;;;;;;;;;;4968753;28;20885;-56
2021/12/11 09:08:05;;;;;;;6.50;4.20;;;;;;;;;;4971117;28;20340;-56
2021/12/11 09:10:38;;;;;;;5.30;2.90;;;;;;;;;;4971508;28;20085;-56
2021/12/11 09:13:13;;;;;;;5.87;3.17;;;;;;;;;;4972124;28;20764;-56
2021/12/11 09:15:52;;;;;;;7.17;3.40;;;;;;;;;;4976750;28;20260;-57
2021/12/11 09:18:25;;;;;;;8.20;4.10;;;;;;;;;;4976588;28;20257;-56
2021/12/11 09:20:56;;;;;;;6.13;3.40;;;;;;;;;;4976679;28;20264;-56
2021/12/11 09:23:42;;;;;;;9.67;3.80;;;;;;;;;;4976192;28;20323;-56
2021/12/11 09:26:10;;;;;;;6.97;2.80;;;;;;;;;;4972485;28;20269;-56
2021/12/11 09:28:52;;;;;;;7.20;3.03;;;;;;;;;;4971027;28;20315;-57
2021/12/11 09:31:26;;;;;;;5.87;3.33;;;;;;;;;;4971017;28;20304;-56
2021/12/11 09:34:01;;;;;;;5.70;3.27;;;;;;;;;;4970650;28;20301;-57
2021/12/11 09:36:33;;;;;;;5.68;3.47;;;;;;;;;;4974463;28;20328;-57
2021/12/11 09:39:13;;;;;;;5.30;3.40;;;;;;;;;;4976193;28;20027;-56
2021/12/11 09:41:39;;;;;;;5.57;3.20;;;;;;;;;;4976157;28;20371;-56
2021/12/11 09:44:06;;;;;;;7.67;3.33;;;;;;;;;;4975718;28;20834;-56
2021/12/11 09:46:36;;;;;;;7.63;3.20;;;;;;;;;;4975387;28;20766;-56
2021/12/11 09:49:04;;;;;;;5.07;3.10;;;;;;;;;;4971293;28;20367;-56
2021/12/11 09:51:35;;;;;;;5.70;3.20;;;;;;;;;;4970513;28;20269;-56
2021/12/11 09:54:05;;;;;;;6.33;3.80;;;;;;;;;;4970475;28;20293;-57
2021/12/11 09:56:34;;;;;;;8.03;3.43;;;;;;;;;;4970602;28;20694;-56
2021/12/11 09:59:05;;;;;;;7.27;3.70;;;;;;;;;;4974084;28;20272;-56
2021/12/11 10:01:35;;;;;;;6.50;3.30;;;;;;;;;;4976372;28;20276;-56
2021/12/11 10:04:05;;;;;;;6.97;3.43;;;;;;;;;;4976207;28;20569;-56
2021/12/11 10:06:39;;;;;;;7.37;3.70;;;;;;;;;;4975370;28;20359;-56
2021/12/11 10:09:18;;;;;;;7.03;3.83;;;;;;;;;;4975575;28;20736;-56
2021/12/11 10:11:46;;;;;;;7.77;3.37;;;;;;;;;;4969923;28;20043;-56
2021/12/11 10:14:16;;;;;;;6.87;3.20;;;;;;;;;;4970368;28;20288;-56
2021/12/11 10:16:44;;;;;;;6.73;3.70;;;;;;;;;;4969498;28;20257;-57
2021/12/11 10:19:13;;;;;;;8.77;3.43;;;;;;;;;;4970199;28;20292;-56
2021/12/11 10:21:42;;;;;;;4.97;2.70;;;;;;;;;;4975139;28;20764;-56
2021/12/11 10:24:11;;;;;;;7.97;3.70;;;;;;;;;;4975002;28;20299;-58
2021/12/11 10:26:38;;;;;;;5.50;3.10;;;;;;;;;;4975386;28;20279;-57
2021/12/11 10:29:06;;;;;;;7.80;3.73;;;;;;;;;;4975447;28;20344;-56
2021/12/11 10:31:36;;;;;;;10.13;5.13;;;;;;;;;;4975042;28;20276;-56
2021/12/11 10:34:05;;;;;;;8.90;3.50;;;;;;;;;;4969473;28;20336;-56
2021/12/11 10:36:33;;;;;;;7.53;3.67;;;;;;;;;;4969980;28;20257;-56
2021/12/11 10:39:01;;;;;;;6.37;3.20;;;;;;;;;;4969923;28;20290;-56
2021/12/11 10:41:28;;;;;;;7.20;3.87;;;;;;;;;;4969716;28;20273;-56
2021/12/11 10:44:02;;;;;;;7.03;3.63;;;;;;;;;;4974687;28;20373;-56
2021/12/11 10:46:32;;;;;;;7.03;4.40;;;;;;;;;;4975062;28;20261;-56
2021/12/11 10:48:59;;;;;;;5.97;3.63;;;;;;;;;;4974954;28;20292;-56
2021/12/11 10:51:28;;;;;;;8.43;3.90;;;;;;;;;;4974339;28;20261;-56
2021/12/11 10:53:55;;;;;;;5.57;3.50;;;;;;;;;;4973995;28;20415;-57
2021/12/11 10:56:23;;;;;;;5.93;3.33;;;;;;;;;;4969344;28;20265;-56
2021/12/11 10:58:53;;;;;;;4.47;2.87;;;;;;;;;;4969662;28;20343;-56
2021/12/11 11:01:27;;;;;;;6.40;4.00;;;;;;;;;;4969250;28;20273;-56
2021/12/11 11:03:56;;;;;;;6.93;3.83;;;;;;;;;;4968767;28;20273;-56
2021/12/11 11:06:23;;;;;;;6.53;3.93;;;;;;;;;;4974475;28;20257;-56
2021/12/11 11:08:49;;;;;;;17.47;5.00;;;;;;;;;;4974294;28;20335;-56
2021/12/11 11:11:18;;;;;;;5.97;3.33;;;;;;;;;;4974549;28;20268;-57
2021/12/11 11:13:46;;;;;;;7.67;3.77;;;;;;;;;;4974026;28;20316;-56
2021/12/11 11:16:13;;;;;;;5.80;3.23;;;;;;;;;;4973895;28;20249;-56
2021/12/11 11:18:40;;;;;;;7.33;3.37;;;;;;;;;;4968843;28;20253;-56
2021/12/11 11:21:09;;;;;;;5.77;3.53;;;;;;;;;;4969292;28;20372;-56
2021/12/11 11:23:36;;;;;;;9.13;3.33;;;;;;;;;;4968608;28;20870;-56
2021/12/11 11:26:06;;;;;;;5.10;3.30;;;;;;;;;;4968923;28;20252;-56
2021/12/11 11:28:34;;;;;;;6.20;3.67;;;;;;;;;;4973312;28;20256;-56
2021/12/11 11:31:04;;;;;;;7.17;3.87;;;;;;;;;;4974166;28;20305;-56
2021/12/11 11:33:31;;;;;;;6.47;3.87;;;;;;;;;;4973514;28;20296;-56
2021/12/11 11:35:59;;;;;;;5.73;3.43;;;;;;;;;;4974313;28;20261;-56
2021/12/11 11:38:27;;;;;;;5.83;3.20;;;;;;;;;;4973548;28;20253;-56
2021/12/11 11:40:56;;;;;;;7.47;3.77;;;;;;;;;;4968600;28;20280;-56
2021/12/11 11:43:24;;;;;;;5.53;3.33;;;;;;;;;;4968398;28;20268;-56
2021/12/11 11:45:52;;;;;;;6.00;3.60;;;;;;;;;;4968599;28;20771;-57
2021/12/11 11:48:27;;;;;;;5.13;3.50;;;;;;;;;;4968209;28;20290;-56
2021/12/11 11:50:55;;;;;;;9.60;4.07;;;;;;;;;;4973854;28;20253;-56
2021/12/11 11:53:24;;;;;;;7.80;3.20;;;;;;;;;;4973489;28;20289;-56
2021/12/11 11:55:53;;;;;;;7.23;3.97;;;;;;;;;;4973780;28;20260;-56
2021/12/11 11:58:20;;;;;;;6.43;3.27;;;;;;;;;;4973604;28;20589;-56
2021/12/11 12:00:50;;;;;;;9.10;4.40;;;;;;;;;;4972041;28;20280;-56
2021/12/11 12:03:18;;;;;;;9.83;4.13;;;;;;;;;;4968471;28;20261;-56
2021/12/11 12:05:47;;;;;;;5.80;3.53;;;;;;;;;;4968321;28;20347;-56
2021/12/11 12:08:15;;;;;;;6.37;3.53;;;;;;;;;;4968412;28;20248;-56
2021/12/11 12:10:43;;;;;;;9.13;4.10;;;;;;;;;;4968265;28;20775;-56
2021/12/11 12:13:09;;;;;;;4.87;3.17;;;;;;;;;;4973369;28;20269;-56
2021/12/11 12:15:39;;;;;;;5.77;3.17;;;;;;;;;;4973315;28;20257;-56
2021/12/11 12:18:06;;;;;;;5.73;3.23;;;;;;;;;;4973548;28;20661;-56
2021/12/11 12:20:34;;;;;;;6.73;3.40;;;;;;;;;;4973267;28;20604;-56
2021/12/11 12:23:02;;;;;;;6.40;3.70;;;;;;;;;;4972528;28;20257;-56
2021/12/11 12:25:29;;;;;;;6.03;4.10;;;;;;;;;;4968103;28;20260;-56
2021/12/11 12:27:56;;;;;;;7.10;4.27;;;;;;;;;;4967988;28;20260;-56
2021/12/11 12:30:27;;;;;;;5.37;3.37;;;;;;;;;;4967698;28;20277;-56
2021/12/11 12:32:55;;;;;;;7.13;3.63;;;;;;;;;;4967728;28;20315;-56
2021/12/11 12:35:23;;;;;;;7.43;3.30;;;;;;;;;;4973226;28;20748;-56
2021/12/11 12:37:50;;;;;;;5.30;3.17;;;;;;;;;;4973390;28;20348;-56
2021/12/11 12:40:27;;;;;;;5.57;3.50;;;;;;;;;;4974365;28;20268;-56
2021/12/11 12:42:57;;;;;;;10.17;3.97;;;;;;;;;;4977066;28;20388;-56
2021/12/11 12:45:29;;;;;;;6.57;3.50;;;;;;;;;;4976024;28;20348;-56
2021/12/11 12:47:59;;;;;;;7.50;4.00;;;;;;;;;;4972015;28;20362;-56
2021/12/11 12:50:53;;;;;;;5.33;3.40;;;;;;;;;;4971313;28;20783;-56
2021/12/11 12:53:20;;;;;;;6.00;3.73;;;;;;;;;;4969349;28;20712;-56
2021/12/11 12:55:57;;;;;;;10.17;4.10;;;;;;;;;;4973398;28;20260;-56
2021/12/11 12:58:28;;;;;;;6.57;4.10;;;;;;;;;;4977093;28;20811;-56
2021/12/11 13:00:58;;;;;;;7.77;4.63;;;;;;;;;;4976324;28;20277;-56
2021/12/11 13:03:27;;;;;;;7.40;4.33;;;;;;;;;;4976972;28;20252;-56
2021/12/11 13:05:56;;;;;;;6.33;3.60;;;;;;;;;;4976577;28;20324;-57
2021/12/11 13:08:33;;;;;;;7.47;3.20;;;;;;;;;;4974093;28;20264;-57
2021/12/11 13:11:02;;;;;;;6.67;3.60;;;;;;;;;;4971140;28;20311;-56
2021/12/11 13:13:30;;;;;;;9.43;3.40;;;;;;;;;;4970941;28;20304;-56
2021/12/11 13:15:59;;;;;;;8.13;4.13;;;;;;;;;;4971362;28;20276;-56
2021/12/11 13:18:29;;;;;;;9.17;4.13;;;;;;;;;;4973993;28;20265;-57
2021/12/11 13:21:02;;;;;;;11.33;3.90;;;;;;;;;;4975929;28;20653;-56
2021/12/11 13:23:30;;;;;;;7.63;5.13;;;;;;;;;;4976111;28;20341;-56
2021/12/11 13:25:59;;;;;;;10.17;5.73;;;;;;;;;;4974859;28;20367;-57
2021/12/11 13:28:28;;;;;;;8.23;4.40;;;;;;;;;;4976148;28;20609;-56
2021/12/11 13:30:59;;;;;;;8.80;4.40;;;;;;;;;;4972546;28;20315;-56
2021/12/11 13:33:26;;;;;;;8.83;4.17;;;;;;;;;;4970771;28;20333;-57
2021/12/11 13:35:55;;;;;;;10.03;3.93;;;;;;;;;;4970448;28;20276;-56
2021/12/11 13:38:23;;;;;;;8.23;3.90;;;;;;;;;;4970416;28;20640;-56
2021/12/11 13:40:52;;;;;;;16.50;5.03;;;;;;;;;;4973651;28;20272;-56
2021/12/11 13:43:19;;;;;;;12.30;5.10;;;;;;;;;;4975940;28;20594;-56
2021/12/11 13:45:48;;;;;;;10.53;5.60;;;;;;;;;;4975532;28;20273;-56
2021/12/11 13:48:15;;;;;;;23.00;6.50;;;;;;;;;;4975651;28;20685;-57
2021/12/11 13:50:44;;;;;;;25.60;5.90;;;;;;;;;;4975901;28;20272;-57
2021/12/11 13:53:12;;;;;;;12.57;6.53;;;;;;;;;;4971145;28;20273;-56
2021/12/11 13:55:38;;;;;;;10.10;5.00;;;;;;;;;;4970647;28;20264;-56
2021/12/11 13:58:08;;;;;;;12.03;5.03;;;;;;;;;;4970029;28;20280;-57
2021/12/11 14:00:46;;;;;;;7.43;4.67;;;;;;;;;;4970307;28;20276;-57
2021/12/11 14:03:14;;;;;;;10.77;5.10;;;;;;;;;;4973592;28;20304;-57
2021/12/11 14:05:41;;;;;;;12.43;4.80;;;;;;;;;;4975378;28;20315;-56
2021/12/11 14:08:10;;;;;;;28.43;6.27;;;;;;;;;;4975387;28;20281;-57
2021/12/11 14:10:37;;;;;;;9.83;5.73;;;;;;;;;;4975704;28;20265;-57
2021/12/11 14:13:05;;;;;;;8.70;5.50;;;;;;;;;;4975657;28;20022;-57
2021/12/11 14:15:32;;;;;;;8.10;5.70;;;;;;;;;;4971643;28;20035;-57
2021/12/11 14:17:59;;;;;;;8.73;6.00;;;;;;;;;;4970331;28;20038;-57
2021/12/11 14:20:32;;;;;;;10.57;6.13;;;;;;;;;;4968961;28;20031;-57
2021/12/11 14:23:00;;;;;;;14.20;7.20;;;;;;;;;;4969823;28;20039;-57
2021/12/11 14:25:32;;;;;;;14.83;6.57;;;;;;;;;;4973053;28;20026;-57
2021/12/11 14:27:59;;;;;;;18.83;7.37;;;;;;;;;;4975373;28;20038;-57
2021/12/11 14:30:26;;;;;;;13.63;7.70;;;;;;;;;;4975279;28;20027;-57
2021/12/11 14:32:54;;;;;;;20.23;10.13;;;;;;;;;;4974890;28;20153;-57
2021/12/11 14:35:24;;;;;;;14.27;9.60;;;;;;;;;;4975107;28;20068;-57
2021/12/11 14:37:52;;;;;;;16.40;8.97;;;;;;;;;;4970989;28;20417;-58
2021/12/11 14:40:20;;;;;;;14.90;7.90;;;;;;;;;;4969666;28;20030;-57
2021/12/11 14:42:49;;;;;;;13.20;7.80;;;;;;;;;;4969620;28;20106;-57
2021/12/11 14:45:18;;;;;;;15.33;8.83;;;;;;;;;;4969709;28;20449;-57
2021/12/11 14:47:46;;;;;;;23.03;11.07;;;;;;;;;;4972597;28;20429;-57
2021/12/11 14:50:14;;;;;;;18.50;10.23;;;;;;;;;;4975048;28;20030;-57
2021/12/11 14:52:40;;;;;;;22.30;10.53;;;;;;;;;;4974894;28;20031;-57
2021/12/11 14:55:09;;;;;;;15.17;9.37;;;;;;;;;;4974936;28;20045;-57
2021/12/11 14:57:37;;;;;;;20.43;11.17;;;;;;;;;;4974415;28;20031;-57
2021/12/11 15:00:08;;;;;;;15.17;10.23;;;;;;;;;;4970674;28;20035;-58
2021/12/11 15:02:36;;;;;;;21.07;12.63;;;;;;;;;;4969255;28;20049;-57